createdAt,value
2022-10-29T00:01:08.348Z,19179.78
2022-10-29T00:03:38.016Z,19181.81
2022-10-29T00:06:10.140Z,19161.50
2022-10-29T00:08:40.857Z,19169.63
2022-10-29T00:11:12.133Z,19155.41
2022-10-29T00:13:40.580Z,19161.50
2022-10-29T00:16:11.416Z,19175.72
2022-10-29T00:18:41.140Z,19139.16
2022-10-29T00:21:14.584Z,19122.91
2022-10-29T00:23:42.898Z,19131.03
2022-10-29T00:26:11.547Z,19163.53
2022-10-29T00:28:40.115Z,19198.09
2022-10-29T00:31:11.489Z,19159.47
2022-10-29T00:33:41.060Z,19155.41
2022-10-29T00:36:13.116Z,19232.63
2022-10-29T00:38:41.328Z,19204.19
2022-10-29T00:41:13.838Z,19208.25
2022-10-29T00:43:48.567Z,19206.22
2022-10-29T00:46:25.659Z,19236.69
2022-10-29T00:48:59.629Z,19257.00
2022-10-29T00:51:31.131Z,19252.94
2022-10-29T00:54:05.924Z,19224.50
2022-10-29T00:56:39.440Z,19240.75
2022-10-29T00:59:10.292Z,19250.91
2022-10-29T01:01:40.212Z,19269.22
2022-10-29T01:04:11.787Z,19224.50
2022-10-29T01:06:42.189Z,19234.66
2022-10-29T01:09:10.286Z,19224.50
2022-10-29T01:11:56.188Z,19192.00
2022-10-29T01:14:34.229Z,19220.44
2022-10-29T01:17:16.868Z,19224.50
2022-10-29T01:21:10.253Z,19257.00
2022-10-29T01:24:35.777Z,19218.41
2022-10-29T01:28:00.987Z,19236.69
2022-10-29T01:31:01.842Z,19230.59
2022-10-29T01:33:41.345Z,19183.84
2022-10-29T01:36:19.741Z,19198.09
2022-10-29T01:39:03.481Z,19169.63
2022-10-29T01:41:42.614Z,19204.19
2022-10-29T01:44:29.097Z,19187.91
2022-10-29T01:47:02.315Z,19161.50
2022-10-29T01:49:37.972Z,19124.94
2022-10-29T01:52:12.203Z,19131.03
2022-10-29T01:54:42.902Z,19129.00
2022-10-29T01:57:33.720Z,19131.03
2022-10-29T02:00:07.444Z,19108.69
2022-10-29T02:02:52.566Z,19086.31
2022-10-29T02:05:33.464Z,19143.22
2022-10-29T02:08:17.765Z,19061.94
2022-10-29T02:10:54.851Z,19112.75
2022-10-29T02:13:32.493Z,19084.28
2022-10-29T02:16:05.307Z,19102.56
2022-10-29T02:18:42.870Z,19080.22
2022-10-29T02:21:10.977Z,19074.13
2022-10-29T02:23:39.146Z,19094.44
2022-10-29T02:26:07.121Z,19084.28
2022-10-29T02:28:35.197Z,19059.91
2022-10-29T02:31:03.183Z,19053.81
2022-10-29T02:33:31.181Z,19041.63
2022-10-29T02:36:00.589Z,19059.91
2022-10-29T02:38:28.819Z,19029.44
2022-10-29T02:40:56.839Z,19074.13
2022-10-29T02:43:24.898Z,19041.63
2022-10-29T02:46:11.982Z,19041.63
2022-10-29T02:48:39.985Z,19013.16
2022-10-29T02:51:09.448Z,19007.06
2022-10-29T02:53:37.828Z,18996.91
2022-10-29T02:56:08.044Z,19013.16
2022-10-29T02:58:36.134Z,18988.78
2022-10-29T03:01:04.653Z,18988.78
2022-10-29T03:03:33.156Z,19005.03
2022-10-29T03:06:01.143Z,18956.28
2022-10-29T03:08:30.590Z,18964.41
2022-10-29T03:10:58.661Z,18984.72
2022-10-29T03:13:26.770Z,18948.16
2022-10-29T03:15:54.785Z,18935.97
2022-10-29T03:18:22.767Z,18942.06
2022-10-29T03:20:50.784Z,18891.25
2022-10-29T03:23:18.789Z,18925.81
2022-10-29T03:25:55.747Z,18903.44
2022-10-29T03:28:27.728Z,18929.88
2022-10-29T03:30:55.899Z,18895.31
2022-10-29T03:33:25.852Z,18927.84
2022-10-29T03:35:58.623Z,18911.56
2022-10-29T03:38:27.626Z,18885.16
2022-10-29T03:40:57.266Z,18909.53
2022-10-29T03:43:26.147Z,18868.91
2022-10-29T03:45:56.046Z,18854.69
2022-10-29T03:48:26.114Z,18862.81
2022-10-29T03:50:58.418Z,18879.06
2022-10-29T03:53:27.067Z,18872.97
2022-10-29T03:55:58.722Z,18852.66
2022-10-29T03:58:28.025Z,18818.09
2022-10-29T04:00:58.569Z,18836.41
2022-10-29T04:03:27.530Z,18858.75
2022-10-29T04:05:56.501Z,18822.19
2022-10-29T04:08:25.939Z,18816.06
2022-10-29T04:10:54.357Z,18826.25
2022-10-29T04:13:23.647Z,18824.22
2022-10-29T04:15:55.836Z,18797.78
2022-10-29T04:18:25.409Z,18777.47
2022-10-29T04:29:19.722Z,18744.97
2022-10-29T04:31:47.771Z,18761.22
2022-10-29T04:34:15.791Z,18773.41
2022-10-29T04:36:43.745Z,18785.59
2022-10-29T04:39:11.724Z,18757.16
2022-10-29T04:41:39.714Z,18773.41
2022-10-29T04:44:07.685Z,18771.38
2022-10-29T04:46:37.048Z,18728.72
2022-10-29T04:49:05.110Z,18726.69
2022-10-29T04:51:33.075Z,18728.72
2022-10-29T04:54:01.051Z,18704.31
2022-10-29T04:56:30.578Z,18749.03
2022-10-29T04:58:58.599Z,18716.53
2022-10-29T05:01:26.926Z,18690.09
2022-10-29T05:03:59.038Z,18712.47
2022-10-29T05:06:28.283Z,18708.41
2022-10-29T05:08:56.241Z,18712.47
2022-10-29T05:11:24.203Z,18712.47
2022-10-29T05:13:52.209Z,18677.91
2022-10-29T05:16:20.162Z,18686.03
2022-10-29T05:18:48.159Z,18692.13
2022-10-29T05:21:17.445Z,18675.88
2022-10-29T05:23:45.401Z,18655.56
2022-10-29T05:26:13.380Z,18663.69
2022-10-29T05:28:41.371Z,18667.75
2022-10-29T05:31:09.315Z,18679.94
2022-10-29T05:33:37.280Z,18631.19
2022-10-29T05:36:06.258Z,18637.28
2022-10-29T05:38:35.593Z,18633.22
2022-10-29T05:41:03.798Z,18643.38
2022-10-29T05:43:31.984Z,18625.09
2022-10-29T05:45:59.971Z,18633.22
2022-10-29T05:48:28.008Z,18614.94
2022-10-29T05:50:57.920Z,18606.81
2022-10-29T05:53:25.907Z,18627.13
2022-10-29T05:55:55.224Z,18586.50
2022-10-29T05:58:23.181Z,18584.47
2022-10-29T06:00:51.514Z,18582.44
2022-10-29T06:03:22.115Z,18602.75
2022-10-29T06:05:51.725Z,18586.50
2022-10-29T06:08:20.228Z,18594.63
2022-10-29T06:10:48.229Z,18580.41
2022-10-29T06:13:21.416Z,18549.91
2022-10-29T06:15:51.347Z,18549.91
2022-10-29T06:18:19.294Z,18576.31
2022-10-29T06:20:47.255Z,18570.22
2022-10-29T06:23:15.214Z,18580.41
2022-10-29T06:25:43.202Z,18566.16
2022-10-29T06:28:15.218Z,18560.06
2022-10-29T06:30:49.036Z,18570.22
2022-10-29T06:33:17.515Z,18586.50
2022-10-29T06:35:45.830Z,18562.09
2022-10-29T06:38:14.615Z,18594.63
2022-10-29T06:40:44.668Z,18578.38
2022-10-29T06:43:13.880Z,18580.41
2022-10-29T06:45:41.863Z,18606.81
2022-10-29T06:48:11.191Z,18606.81
2022-10-29T06:50:39.147Z,18631.19
2022-10-29T06:53:10.772Z,18643.38
2022-10-29T06:55:38.980Z,18635.25
2022-10-29T06:58:12.489Z,18667.75
2022-10-29T07:00:41.791Z,18663.69
2022-10-29T07:03:14.991Z,18744.97
2022-10-29T07:05:43.182Z,18751.06
2022-10-29T07:08:11.836Z,18777.47
2022-10-29T07:10:41.079Z,18720.59
2022-10-29T07:13:09.090Z,18744.97
2022-10-29T07:15:37.165Z,18740.91
2022-10-29T07:18:07.684Z,18744.97
2022-10-29T07:20:39.688Z,18818.09
2022-10-29T07:23:08.231Z,18787.63
2022-10-29T07:25:38.397Z,18805.91
2022-10-29T07:28:09.089Z,18797.78
2022-10-29T07:30:37.336Z,18870.94
2022-10-29T07:33:05.581Z,18891.25
2022-10-29T07:35:36.388Z,18915.63
2022-10-29T07:38:09.171Z,18956.28
2022-10-29T07:40:39.263Z,18966.44
2022-10-29T07:43:07.525Z,19021.31
2022-10-29T07:45:35.555Z,19057.88
2022-10-29T07:48:07.757Z,19133.06
2022-10-29T07:50:38.520Z,19202.16
2022-10-29T07:53:08.123Z,19196.06
2022-10-29T07:55:36.919Z,19210.28
2022-10-29T07:58:07.468Z,19317.97
2022-10-29T08:00:38.101Z,19340.31
2022-10-29T08:03:07.719Z,19395.19
2022-10-29T08:05:37.141Z,19443.97
2022-10-29T08:08:06.552Z,19488.69
2022-10-29T08:10:36.491Z,19466.31
2022-10-29T08:13:07.279Z,19494.78
2022-10-29T08:15:36.327Z,19492.75
2022-10-29T08:18:12.625Z,19535.41
2022-10-29T08:20:42.055Z,19537.44
2022-10-29T08:23:10.426Z,19551.69
2022-10-29T08:25:41.476Z,19574.03
2022-10-29T08:28:11.910Z,19549.63
2022-10-29T08:30:40.750Z,19590.28
2022-10-29T08:33:08.882Z,19572.00
2022-10-29T08:35:36.889Z,19594.34
2022-10-29T08:38:06.280Z,19632.97
2022-10-29T08:40:51.294Z,19643.13
2022-10-29T08:44:04.604Z,19635.00
2022-10-29T08:46:44.283Z,19695.97
2022-10-29T08:49:19.354Z,19698.00
2022-10-29T08:51:56.294Z,19708.16
2022-10-29T08:54:31.383Z,19748.81
2022-10-29T08:57:07.420Z,19695.97
2022-10-29T08:59:47.065Z,19732.53
2022-10-29T09:02:18.745Z,19785.38
2022-10-29T09:04:47.020Z,19799.63
2022-10-29T09:07:43.082Z,19821.97
2022-10-29T09:10:25.690Z,19854.50
2022-10-29T09:13:21.135Z,19868.72
2022-10-29T09:16:18.006Z,19862.63
2022-10-29T09:19:17.371Z,19854.50
2022-10-29T09:22:00.052Z,19870.75
2022-10-29T09:24:40.345Z,19887.00
2022-10-29T09:27:21.175Z,19854.50
2022-10-29T09:30:05.325Z,19899.19
2022-10-29T09:32:39.858Z,19893.09
2022-10-29T09:35:15.417Z,19907.31
2022-10-29T09:37:50.619Z,19899.19
2022-10-29T09:40:34.164Z,19864.66
2022-10-29T09:43:16.445Z,19880.91
2022-10-29T09:45:55.267Z,19876.84
2022-10-29T09:48:34.310Z,19907.31
2022-10-29T09:51:18.832Z,19878.88
2022-10-29T09:53:47.120Z,19903.25
2022-10-29T09:56:15.113Z,19891.06
2022-10-29T09:58:50.789Z,19899.19
2022-10-29T10:01:24.596Z,19937.81
2022-10-29T10:04:06.088Z,19956.09
2022-10-29T10:07:06.979Z,20035.38
2022-10-29T10:09:57.274Z,20037.41
2022-10-29T10:12:29.152Z,20049.59
2022-10-29T10:15:09.015Z,20108.53
2022-10-29T10:18:01.328Z,20110.56
2022-10-29T10:20:44.244Z,20151.22
2022-10-29T10:23:27.296Z,20155.28
2022-10-29T10:26:00.445Z,20149.19
2022-10-29T10:28:34.906Z,20169.53
2022-10-29T10:31:13.014Z,20179.69
2022-10-29T10:33:52.192Z,20216.25
2022-10-29T10:36:24.491Z,20204.06
2022-10-29T10:38:56.291Z,20214.22
2022-10-29T10:41:28.576Z,20238.63
2022-10-29T10:44:01.300Z,20212.19
2022-10-29T10:46:34.678Z,20214.22
2022-10-29T10:49:07.099Z,20242.69
2022-10-29T10:51:38.198Z,20224.41
2022-10-29T10:54:28.516Z,20214.22
2022-10-29T10:57:03.166Z,20258.94
2022-10-29T10:59:51.912Z,20313.84
2022-10-29T11:02:33.007Z,20305.69
2022-10-29T11:05:13.084Z,20319.94
2022-10-29T11:07:48.020Z,20317.91
2022-10-29T11:10:19.235Z,20336.19
2022-10-29T11:12:54.359Z,20356.50
2022-10-29T11:15:35.590Z,20427.66
2022-10-29T11:18:18.803Z,20464.25
2022-10-29T11:20:57.755Z,20450.03
2022-10-29T11:23:41.287Z,20515.06
2022-10-29T11:26:18.521Z,20464.25
2022-10-29T11:28:56.183Z,20506.94
2022-10-29T11:31:33.118Z,20472.38
2022-10-29T11:34:16.919Z,20547.59
2022-10-29T11:36:53.484Z,20525.22
2022-10-29T11:39:30.366Z,20559.78
2022-10-29T11:42:01.180Z,20541.50
2022-10-29T11:44:37.907Z,20535.41
2022-10-29T11:47:31.472Z,20521.16
2022-10-29T11:50:23.041Z,20488.63
2022-10-29T11:53:04.821Z,20419.53
2022-10-29T11:55:44.235Z,20423.59
2022-10-29T11:58:33.381Z,20384.97
2022-10-29T12:01:21.213Z,20374.81
2022-10-29T12:04:21.332Z,20399.19
2022-10-29T12:07:17.987Z,20374.81
2022-10-29T12:10:09.293Z,20313.84
2022-10-29T12:12:49.035Z,20324.00
2022-10-29T12:15:27.335Z,20344.31
2022-10-29T12:18:14.088Z,20401.22
2022-10-29T12:20:52.486Z,20429.69
2022-10-29T12:23:37.098Z,20445.94
2022-10-29T12:26:15.266Z,20529.28
2022-10-29T12:28:56.422Z,20614.66
2022-10-29T12:31:35.225Z,20702.09
2022-10-29T12:34:09.490Z,20752.91
2022-10-29T12:36:53.301Z,20714.28
2022-10-29T12:39:32.341Z,20604.50
2022-10-29T12:42:07.021Z,20592.31
2022-10-29T12:44:46.327Z,20517.09
2022-10-29T12:47:21.028Z,20476.44
2022-10-29T12:50:12.464Z,20411.41
2022-10-29T12:52:47.344Z,20415.47
2022-10-29T12:55:18.902Z,20360.59
2022-10-29T12:57:46.868Z,20364.66
2022-10-29T13:00:47.346Z,20352.44
2022-10-29T13:04:00.756Z,20336.19
2022-10-29T13:06:52.427Z,20313.84
2022-10-29T13:09:23.183Z,20356.50
2022-10-29T13:11:55.746Z,20321.97
2022-10-29T13:14:30.288Z,20258.94
2022-10-29T13:17:00.013Z,20273.19
2022-10-29T13:19:50.414Z,20305.69
2022-10-29T13:22:56.053Z,20265.03
2022-10-29T13:25:49.584Z,20271.16
2022-10-29T13:28:50.597Z,20275.22
2022-10-29T13:31:44.997Z,20277.25
2022-10-29T13:34:51.591Z,20273.19
2022-10-29T13:38:03.389Z,20267.09
2022-10-29T13:41:11.841Z,20297.56
2022-10-29T13:43:42.465Z,20275.22
2022-10-29T13:46:45.686Z,20234.56
2022-10-29T13:49:20.694Z,20260.97
2022-10-29T13:51:59.950Z,20234.56
2022-10-29T13:54:41.204Z,20212.19
2022-10-29T13:57:21.782Z,20224.41
2022-10-29T13:59:58.716Z,20236.59
2022-10-29T14:02:55.456Z,20256.91
2022-10-29T14:05:29.934Z,20181.72
2022-10-29T14:08:07.651Z,20195.94
2022-10-29T14:10:45.984Z,20189.84
2022-10-29T14:13:33.164Z,20195.94
2022-10-29T14:16:08.213Z,20208.13
2022-10-29T14:18:40.638Z,20206.09
2022-10-29T14:21:15.615Z,20248.78
2022-10-29T14:23:57.734Z,20224.41
2022-10-29T14:26:26.839Z,20212.19
2022-10-29T14:28:55.108Z,20183.75
2022-10-29T14:31:25.753Z,20163.41
2022-10-29T14:33:58.136Z,20179.69
2022-10-29T14:36:35.338Z,20167.47
2022-10-29T14:39:08.781Z,20167.47
2022-10-29T14:41:40.721Z,20153.25
2022-10-29T14:44:18.506Z,20157.31
2022-10-29T14:46:59.028Z,20122.78
2022-10-29T14:49:30.064Z,20080.09
2022-10-29T14:52:02.363Z,20096.34
2022-10-29T14:54:36.315Z,20055.69
2022-10-29T14:57:08.694Z,20037.41
2022-10-29T14:59:37.362Z,20041.47
2022-10-29T15:05:07.541Z,20008.94
2022-10-29T15:07:37.177Z,19974.41
2022-10-29T15:10:23.119Z,19919.53
2022-10-29T15:12:52.847Z,19943.91
2022-10-29T15:15:28.542Z,19952.03
2022-10-29T15:18:04.918Z,19923.59
2022-10-29T15:20:47.319Z,19891.06
2022-10-29T15:23:23.583Z,19882.94
2022-10-29T15:25:58.840Z,19854.50
2022-10-29T15:28:31.032Z,19817.91
2022-10-29T15:31:03.143Z,19834.16
2022-10-29T15:33:32.846Z,19779.28
2022-10-29T15:36:05.274Z,19779.28
2022-10-29T15:39:20.125Z,19795.53
2022-10-29T15:41:51.745Z,19765.06
2022-10-29T15:44:36.321Z,19769.13
2022-10-29T15:47:22.042Z,19724.41
2022-10-29T15:49:50.041Z,19720.34
2022-10-29T15:52:22.883Z,19734.56
2022-10-29T15:54:51.152Z,19742.72
2022-10-29T15:57:19.328Z,19702.06
2022-10-29T15:59:47.362Z,19704.09
2022-10-29T16:02:18.366Z,19683.78
2022-10-29T16:04:46.459Z,19673.59
2022-10-29T16:07:17.005Z,19669.53
2022-10-29T16:09:50.921Z,19620.78
2022-10-29T16:12:19.370Z,19596.38
2022-10-29T16:14:47.439Z,19606.53
2022-10-29T16:17:18.514Z,19588.25
2022-10-29T16:19:46.685Z,19624.84
2022-10-29T16:22:17.794Z,19594.34
2022-10-29T16:24:47.381Z,19635.00
2022-10-29T16:27:18.360Z,19537.44
2022-10-29T16:29:49.458Z,19598.41
2022-10-29T16:32:20.389Z,19553.72
2022-10-29T16:34:48.527Z,19557.78
2022-10-29T16:37:19.146Z,19547.59
2022-10-29T16:39:48.530Z,19533.38
2022-10-29T16:42:31.449Z,19545.56
2022-10-29T16:44:59.517Z,19578.09
2022-10-29T16:47:27.821Z,19559.81
2022-10-29T16:49:56.109Z,19578.09
2022-10-29T16:52:27.551Z,19547.59
2022-10-29T16:54:58.860Z,19541.50
2022-10-29T16:57:27.035Z,19509.00
2022-10-29T16:59:55.061Z,19488.69
2022-10-29T17:02:22.997Z,19490.72
2022-10-29T17:04:50.964Z,19500.88
2022-10-29T17:07:19.916Z,19523.22
2022-10-29T17:09:47.903Z,19456.16
2022-10-29T17:12:17.276Z,19435.84
2022-10-29T17:14:45.241Z,19393.16
2022-10-29T17:17:13.268Z,19368.78
2022-10-29T17:19:41.328Z,19403.31
2022-10-29T17:22:11.359Z,19401.28
2022-10-29T17:24:39.367Z,19374.88
2022-10-29T17:27:07.502Z,19389.09
2022-10-29T17:29:37.072Z,19334.22
2022-10-29T17:32:06.532Z,19307.81
2022-10-29T17:34:35.232Z,19307.81
2022-10-29T17:37:03.191Z,19328.13
2022-10-29T17:39:31.226Z,19257.00
2022-10-29T17:41:59.492Z,19289.53
2022-10-29T17:44:27.657Z,19232.63
2022-10-29T17:46:57.359Z,19289.53
2022-10-29T17:49:26.759Z,19238.72
2022-10-29T17:51:54.760Z,19236.69
2022-10-29T17:54:22.754Z,19230.59
2022-10-29T17:56:51.479Z,19216.38
2022-10-29T17:59:19.448Z,19179.78
2022-10-29T18:01:47.602Z,19196.06
2022-10-29T18:04:17.148Z,19206.22
2022-10-29T18:06:45.124Z,19204.19
2022-10-29T18:09:17.080Z,19232.63
2022-10-29T18:11:50.258Z,19141.19
2022-10-29T18:14:18.388Z,19135.09
2022-10-29T18:16:46.756Z,19114.78
2022-10-29T18:19:16.120Z,19135.09
2022-10-29T18:21:44.174Z,19078.19
2022-10-29T18:24:12.520Z,19114.78
2022-10-29T18:26:40.538Z,19080.22
2022-10-29T18:29:12.595Z,19070.06
2022-10-29T18:31:44.790Z,19070.06
2022-10-29T18:34:14.983Z,19049.75
2022-10-29T18:36:47.380Z,19072.09
2022-10-29T18:39:15.421Z,19029.44
2022-10-29T18:41:43.359Z,19078.19
2022-10-29T18:44:11.344Z,19039.59
2022-10-29T18:46:39.393Z,19053.81
2022-10-29T18:49:07.339Z,19017.25
2022-10-29T18:51:35.288Z,19017.25
2022-10-29T18:54:05.003Z,19057.88
2022-10-29T18:56:32.994Z,19021.31
2022-10-29T18:59:01.505Z,19047.72
2022-10-29T19:01:32.389Z,18970.50
2022-10-29T19:04:03.123Z,19007.06
2022-10-29T19:06:34.794Z,19023.34
2022-10-29T19:09:07.240Z,18996.91
2022-10-29T19:11:36.115Z,18980.66
2022-10-29T19:14:07.545Z,18978.63
2022-10-29T19:16:35.686Z,18998.94
2022-10-29T19:21:40.328Z,18990.81
2022-10-29T19:24:14.422Z,18946.13
2022-10-29T19:26:43.314Z,18982.69
2022-10-29T19:29:12.676Z,18962.38
2022-10-29T19:31:41.750Z,19003.00
2022-10-29T19:34:10.252Z,18984.72
2022-10-29T19:36:40.075Z,18988.78
2022-10-29T19:39:09.801Z,19027.41
2022-10-29T19:41:37.819Z,19029.44
2022-10-29T19:44:06.517Z,18974.56
2022-10-29T19:46:34.503Z,19025.38
2022-10-29T19:49:02.577Z,19041.63
2022-10-29T19:51:30.708Z,18984.72
2022-10-29T19:54:01.806Z,19007.06
2022-10-29T19:56:31.096Z,18954.25
2022-10-29T19:58:59.152Z,19000.97
2022-10-29T20:01:27.269Z,18966.44
2022-10-29T20:03:55.420Z,18984.72
2022-10-29T20:06:23.436Z,18956.28
2022-10-29T20:08:51.660Z,18933.94
2022-10-29T20:11:19.613Z,18925.81
2022-10-29T20:13:48.909Z,18946.13
2022-10-29T20:16:20.451Z,18931.91
2022-10-29T20:18:49.504Z,18915.63
2022-10-29T20:21:18.200Z,18899.38
2022-10-29T20:23:46.594Z,18925.81
2022-10-29T20:26:14.660Z,18917.66
2022-10-29T20:28:42.792Z,18901.41
2022-10-29T20:31:14.609Z,18915.63
2022-10-29T20:33:42.677Z,18940.03
2022-10-29T20:36:11.014Z,18942.06
2022-10-29T20:38:39.005Z,18942.06
2022-10-29T20:41:07.056Z,18948.16
2022-10-29T20:43:35.213Z,18960.34
2022-10-29T20:46:04.239Z,18946.13
2022-10-29T20:48:36.153Z,18962.38
2022-10-29T20:51:05.231Z,18907.50
2022-10-29T20:53:33.254Z,18954.25
2022-10-29T20:56:01.289Z,19033.50
2022-10-29T20:58:29.349Z,18964.41
2022-10-29T21:01:05.487Z,18944.09
2022-10-29T21:03:34.944Z,18964.41
2022-10-29T21:06:03.633Z,18952.22
2022-10-29T21:08:32.497Z,18948.16
2022-10-29T21:11:01.440Z,18935.97
2022-10-29T21:13:30.817Z,18938.00
2022-10-29T21:16:06.503Z,18944.09
2022-10-29T21:18:40.139Z,18921.75
2022-10-29T21:21:09.242Z,18925.81
2022-10-29T21:23:38.491Z,18964.41
2022-10-29T21:26:08.514Z,18964.41
2022-10-29T21:28:36.696Z,18982.69
2022-10-29T21:31:05.149Z,19009.09
2022-10-29T21:33:33.130Z,19003.00
2022-10-29T21:36:03.037Z,19000.97
2022-10-29T21:38:33.244Z,19015.19
2022-10-29T21:41:01.998Z,18996.91
2022-10-29T21:43:30.484Z,19029.44
2022-10-29T21:45:58.508Z,18972.53
2022-10-29T21:48:27.421Z,19005.03
2022-10-29T21:51:04.497Z,18974.56
2022-10-29T21:53:32.996Z,18986.75
2022-10-29T21:56:03.843Z,19011.13
2022-10-29T21:58:31.971Z,18986.75
2022-10-29T22:01:05.408Z,18978.63
2022-10-29T22:03:35.264Z,18984.72
2022-10-29T22:06:07.015Z,18994.88
2022-10-29T22:08:35.616Z,19007.06
2022-10-29T22:11:03.996Z,19029.44
2022-10-29T22:13:33.680Z,19021.31
2022-10-29T22:16:02.136Z,19057.88
2022-10-29T22:18:31.035Z,19021.31
2022-10-29T22:21:14.249Z,19055.84
2022-10-29T22:23:46.781Z,19080.22
2022-10-29T22:26:17.474Z,19104.59
2022-10-29T22:28:47.106Z,19059.91
2022-10-29T22:31:17.516Z,19074.13
2022-10-29T22:33:46.803Z,19118.84
2022-10-29T22:36:19.225Z,19110.72
2022-10-29T22:38:47.730Z,19114.78
2022-10-29T22:41:18.210Z,19104.59
2022-10-29T22:43:46.723Z,19098.50
2022-10-29T22:46:17.431Z,19131.03
2022-10-29T22:48:45.685Z,19096.47
2022-10-29T22:51:17.898Z,19074.13
2022-10-29T22:53:46.890Z,19086.31
2022-10-29T22:56:16.493Z,19086.31
2022-10-29T22:58:44.856Z,19090.38
2022-10-29T23:01:15.602Z,19053.81
2022-10-29T23:03:44.496Z,19068.03
2022-10-29T23:06:17.627Z,19045.69
2022-10-29T23:08:47.132Z,19082.25
2022-10-29T23:11:19.527Z,19019.28
2022-10-29T23:13:47.883Z,19031.47
2022-10-29T23:16:16.692Z,19027.41
2022-10-29T23:18:48.586Z,19045.69
2022-10-29T23:21:18.681Z,19061.94
2022-10-29T23:23:47.227Z,19000.97
2022-10-29T23:26:15.558Z,19009.09
2022-10-29T23:28:44.356Z,19023.34
2022-10-29T23:31:15.385Z,19019.28
2022-10-29T23:33:46.106Z,19009.09
2022-10-29T23:36:17.764Z,18978.63
2022-10-29T23:38:46.345Z,19003.00
2022-10-29T23:41:15.256Z,19021.31
2022-10-29T23:43:43.263Z,18964.41
2022-10-29T23:46:11.263Z,18944.09
2022-10-29T23:48:39.215Z,18972.53
2022-10-29T23:51:07.302Z,18968.47
2022-10-29T23:53:36.765Z,18980.66
2022-10-29T23:56:05.556Z,18988.78
2022-10-29T23:58:33.625Z,18960.34
